createdAt,value
2022-08-07T00:02:36.255Z,58.39
2022-08-07T00:04:57.984Z,58.06
2022-08-07T00:07:27.576Z,58.46
2022-08-07T00:10:25.711Z,57.98
2022-08-07T00:12:59.685Z,57.91
2022-08-07T00:15:38.278Z,58.17
2022-08-07T00:18:19.348Z,58.08
2022-08-07T00:20:49.233Z,58.10
2022-08-07T00:23:17.438Z,58.79
2022-08-07T00:25:45.880Z,58.84
2022-08-07T00:28:22.301Z,59.04
2022-08-07T00:30:59.560Z,59.70
2022-08-07T00:33:28.445Z,59.86
2022-08-07T00:36:01.157Z,58.66
2022-08-07T00:38:31.053Z,58.34
2022-08-07T00:40:59.710Z,58.71
2022-08-07T00:43:59.224Z,59.32
2022-08-07T00:46:16.910Z,59.09
2022-08-07T00:48:45.665Z,59.91
2022-08-07T00:51:18.154Z,60.31
2022-08-07T00:53:50.762Z,59.80
2022-08-07T00:56:23.570Z,59.89
2022-08-07T00:59:00.058Z,60.10
2022-08-07T01:01:28.238Z,59.42
2022-08-07T01:04:12.342Z,60.32
2022-08-07T01:06:52.742Z,60.27
2022-08-07T01:10:03.943Z,60.64
2022-08-07T01:12:29.779Z,60.80
2022-08-07T01:15:01.778Z,61.17
2022-08-07T01:17:32.925Z,61.16
2022-08-07T01:20:06.544Z,60.92
2022-08-07T01:22:37.979Z,62.25
2022-08-07T01:25:40.410Z,61.31
2022-08-07T01:28:03.873Z,61.68
2022-08-07T01:30:33.411Z,62.86
2022-08-07T01:33:02.323Z,62.07
2022-08-07T01:35:52.684Z,62.73
2022-08-07T01:38:25.067Z,61.94
2022-08-07T01:40:56.142Z,62.32
2022-08-07T01:43:25.917Z,63.17
2022-08-07T01:45:55.530Z,62.72
2022-08-07T01:48:30.820Z,62.79
2022-08-07T01:51:24.362Z,62.66
2022-08-07T01:54:12.097Z,62.92
2022-08-07T01:56:49.334Z,62.42
2022-08-07T01:59:31.192Z,63.20
2022-08-07T02:02:06.171Z,62.69
2022-08-07T02:04:56.168Z,63.36
2022-08-07T02:07:36.086Z,63.82
2022-08-07T02:10:15.294Z,63.46
2022-08-07T02:12:46.386Z,62.86
2022-08-07T02:15:21.774Z,63.78
2022-08-07T02:17:52.123Z,62.94
2022-08-07T02:20:23.905Z,63.11
2022-08-07T02:22:57.415Z,63.16
2022-08-07T02:26:10.838Z,63.66
2022-08-07T02:28:24.447Z,63.34
2022-08-07T02:30:54.150Z,63.72
2022-08-07T02:33:24.043Z,63.92
2022-08-07T02:36:29.775Z,63.48
2022-08-07T02:38:56.949Z,64.69
2022-08-07T02:41:33.376Z,65.82
2022-08-07T02:44:06.129Z,64.62
2022-08-07T02:46:36.706Z,64.90
2022-08-07T02:49:05.462Z,64.31
2022-08-07T02:51:42.768Z,63.53
2022-08-07T02:54:19.154Z,64.59
2022-08-07T02:56:49.749Z,63.34
2022-08-07T02:59:24.153Z,64.34
2022-08-07T03:01:56.344Z,64.81
2022-08-07T03:04:26.573Z,64.50
2022-08-07T03:06:55.318Z,63.96
2022-08-07T03:09:44.643Z,64.69
2022-08-07T03:12:22.548Z,65.18
2022-08-07T03:14:58.586Z,66.00
2022-08-07T03:17:31.052Z,66.23
2022-08-07T03:20:05.724Z,66.93
2022-08-07T03:22:35.395Z,65.81
2022-08-07T03:25:03.721Z,65.39
2022-08-07T03:27:59.191Z,65.17
2022-08-07T03:30:24.432Z,65.80
2022-08-07T03:32:58.582Z,66.54
2022-08-07T03:35:37.930Z,65.97
2022-08-07T03:38:13.365Z,67.25
2022-08-07T03:40:44.529Z,66.76
2022-08-07T03:43:15.308Z,67.01
2022-08-07T03:45:48.616Z,66.76
2022-08-07T03:48:17.061Z,65.84
2022-08-07T03:50:56.067Z,66.92
2022-08-07T03:54:05.575Z,67.12
2022-08-07T03:56:17.374Z,67.23
2022-08-07T03:59:09.636Z,67.64
2022-08-07T04:01:43.305Z,67.77
2022-08-07T04:04:17.214Z,68.21
2022-08-07T04:06:45.791Z,65.82
2022-08-07T04:09:15.742Z,66.24
2022-08-07T04:12:24.070Z,66.51
2022-08-07T04:14:38.807Z,67.40
2022-08-07T04:17:20.108Z,68.18
2022-08-07T04:19:54.132Z,68.52
2022-08-07T04:22:23.182Z,69.92
2022-08-07T04:24:51.552Z,69.55
2022-08-07T04:27:25.792Z,68.24
2022-08-07T04:30:01.700Z,68.49
2022-08-07T04:32:34.622Z,69.24
2022-08-07T04:35:05.760Z,69.30
2022-08-07T04:38:00.951Z,68.62
2022-08-07T04:40:26.779Z,70.62
2022-08-07T04:43:01.685Z,69.81
2022-08-07T04:45:57.369Z,70.02
2022-08-07T04:48:36.639Z,70.57
2022-08-07T04:51:10.746Z,70.90
2022-08-07T04:54:05.323Z,71.28
2022-08-07T04:58:24.303Z,71.46
2022-08-07T05:00:09.603Z,72.17
2022-08-07T05:02:30.645Z,71.65
2022-08-07T05:05:11.419Z,72.64
2022-08-07T05:07:59.389Z,73.35
2022-08-07T05:10:34.243Z,73.43
2022-08-07T05:14:44.612Z,72.69
2022-08-07T05:15:59.214Z,72.47
2022-08-07T05:18:36.907Z,72.34
2022-08-07T05:21:06.460Z,72.39
2022-08-07T05:23:40.785Z,72.46
2022-08-07T05:26:18.827Z,73.93
2022-08-07T05:28:54.161Z,73.25
2022-08-07T05:31:35.144Z,72.10
2022-08-07T05:34:10.875Z,72.04
2022-08-07T05:36:41.349Z,72.76
2022-08-07T05:40:13.645Z,72.09
2022-08-07T05:42:00.369Z,70.89
2022-08-07T05:44:32.253Z,71.67
2022-08-07T05:47:01.663Z,71.35
2022-08-07T05:49:49.034Z,71.11
2022-08-07T05:52:20.139Z,71.08
2022-08-07T05:54:55.578Z,71.82
2022-08-07T05:57:26.704Z,71.44
2022-08-07T06:00:00.183Z,71.05
2022-08-07T06:02:32.118Z,69.92
2022-08-07T06:05:05.982Z,71.36
2022-08-07T06:08:13.319Z,71.41
2022-08-07T06:10:24.485Z,71.82
2022-08-07T06:12:52.466Z,71.15
2022-08-07T06:15:20.958Z,71.08
2022-08-07T06:17:53.635Z,70.79
2022-08-07T06:20:25.544Z,70.33
2022-08-07T06:23:46.765Z,71.01
2022-08-07T06:25:57.167Z,70.52
2022-08-07T06:28:27.718Z,70.30
2022-08-07T06:30:58.326Z,69.50
2022-08-07T06:33:27.335Z,68.75
2022-08-07T06:36:12.339Z,68.69
2022-08-07T06:38:51.255Z,68.86
2022-08-07T06:42:00.598Z,68.66
2022-08-07T06:44:13.997Z,68.50
2022-08-07T06:46:44.434Z,68.31
2022-08-07T06:49:21.954Z,68.20
2022-08-07T06:51:53.911Z,66.91
2022-08-07T06:55:31.677Z,66.67
2022-08-07T06:57:15.778Z,66.32
2022-08-07T07:00:13.122Z,65.50
2022-08-07T07:02:49.052Z,64.24
2022-08-07T07:06:03.075Z,63.53
2022-08-07T07:08:18.464Z,62.33
2022-08-07T07:10:54.795Z,60.58
2022-08-07T07:13:55.582Z,60.67
2022-08-07T07:16:27.533Z,60.68
2022-08-07T07:19:04.149Z,60.65
2022-08-07T07:22:11.670Z,60.42
2022-08-07T07:24:33.043Z,58.41
2022-08-07T07:27:04.356Z,58.78
2022-08-07T07:29:40.315Z,57.70
2022-08-07T07:32:26.296Z,57.19
2022-08-07T07:34:59.491Z,56.59
2022-08-07T07:37:49.513Z,55.72
2022-08-07T07:40:20.744Z,55.69
2022-08-07T07:42:56.406Z,55.56
2022-08-07T07:46:37.800Z,54.78
2022-08-07T07:48:35.386Z,53.46
2022-08-07T07:51:08.077Z,52.85
2022-08-07T07:53:52.098Z,52.60
2022-08-07T07:56:29.746Z,51.53
2022-08-07T07:59:01.522Z,49.90
2022-08-07T08:02:03.811Z,50.03
2022-08-07T08:04:25.862Z,50.52
2022-08-07T08:06:57.033Z,49.62
2022-08-07T08:09:33.122Z,50.21
2022-08-07T08:12:50.137Z,50.23
2022-08-07T08:15:11.173Z,48.59
2022-08-07T08:18:36.585Z,48.96
2022-08-07T08:20:34.085Z,47.60
2022-08-07T08:23:22.307Z,48.17
2022-08-07T08:26:15.671Z,47.62
2022-08-07T08:28:47.282Z,47.48
2022-08-07T08:31:30.188Z,47.98
2022-08-07T08:34:12.485Z,47.42
2022-08-07T08:36:58.232Z,46.86
2022-08-07T08:39:39.505Z,46.55
2022-08-07T08:42:22.585Z,46.74
2022-08-07T08:45:04.291Z,46.60
2022-08-07T08:47:52.923Z,45.91
2022-08-07T08:50:34.711Z,45.66
2022-08-07T08:53:16.620Z,46.10
2022-08-07T08:55:53.338Z,45.28
2022-08-07T08:58:32.982Z,45.82
2022-08-07T09:01:14.711Z,44.88
2022-08-07T09:03:52.689Z,44.72
2022-08-07T09:06:33.852Z,44.21
2022-08-07T09:09:21.152Z,43.90
2022-08-07T09:12:20.186Z,44.22
2022-08-07T09:15:00.665Z,42.86
2022-08-07T09:18:09.987Z,43.03
2022-08-07T09:20:58.587Z,42.33
2022-08-07T09:24:30.793Z,42.24
2022-08-07T09:26:39.481Z,41.88
2022-08-07T09:30:06.115Z,41.45
2022-08-07T09:32:23.716Z,41.75
2022-08-07T09:36:01.338Z,41.84
2022-08-07T09:38:14.030Z,40.59
2022-08-07T09:41:05.891Z,41.28
2022-08-07T09:44:05.336Z,40.79
2022-08-07T09:47:51.766Z,40.68
2022-08-07T09:50:02.529Z,40.63
2022-08-07T09:52:41.466Z,39.99
2022-08-07T09:55:28.836Z,39.88
2022-08-07T09:58:32.220Z,40.27
2022-08-07T10:01:51.064Z,40.53
2022-08-07T10:04:28.407Z,40.03
2022-08-07T10:07:26.212Z,40.08
2022-08-07T10:10:21.733Z,39.80
2022-08-07T10:13:15.939Z,40.59
2022-08-07T10:16:10.941Z,40.01
2022-08-07T10:19:03.390Z,40.04
2022-08-07T10:22:14.306Z,39.69
2022-08-07T10:24:52.069Z,39.09
2022-08-07T10:27:46.074Z,39.17
2022-08-07T10:30:17.528Z,39.14
2022-08-07T10:33:15.477Z,38.93
2022-08-07T10:36:12.435Z,38.72
2022-08-07T10:38:51.527Z,38.79
2022-08-07T10:41:51.308Z,38.64
2022-08-07T10:44:33.882Z,37.39
2022-08-07T10:47:27.122Z,37.46
2022-08-07T10:50:05.074Z,37.96
2022-08-07T10:52:42.625Z,38.19
2022-08-07T10:55:27.133Z,37.88
2022-08-07T10:58:18.726Z,36.95
2022-08-07T11:01:18.401Z,36.96
2022-08-07T11:04:16.744Z,37.27
2022-08-07T11:06:51.728Z,36.58
2022-08-07T11:10:09.158Z,36.65
2022-08-07T11:12:19.015Z,37.08
2022-08-07T11:15:03.612Z,36.67
2022-08-07T11:17:54.092Z,36.86
2022-08-07T11:20:24.933Z,35.37
2022-08-07T11:23:01.406Z,36.06
2022-08-07T11:25:36.047Z,36.14
2022-08-07T11:28:17.786Z,36.67
2022-08-07T11:30:54.420Z,36.81
2022-08-07T11:33:59.394Z,36.55
2022-08-07T11:36:39.161Z,35.98
2022-08-07T11:39:19.543Z,35.97
2022-08-07T11:42:01.991Z,35.39
2022-08-07T11:44:52.039Z,35.69
2022-08-07T11:47:38.600Z,35.96
2022-08-07T11:50:31.714Z,35.63
2022-08-07T11:53:17.231Z,36.12
2022-08-07T11:56:12.012Z,35.40
2022-08-07T12:00:08.061Z,35.36
2022-08-07T12:02:17.812Z,34.20
2022-08-07T12:05:03.169Z,34.67
2022-08-07T12:07:53.680Z,33.63
2022-08-07T12:11:00.890Z,34.60
2022-08-07T12:13:51.758Z,34.99
2022-08-07T12:16:30.434Z,35.09
2022-08-07T12:19:07.595Z,35.25
2022-08-07T12:22:38.088Z,34.42
2022-08-07T12:24:40.170Z,34.97
2022-08-07T12:27:16.180Z,34.79
2022-08-07T12:30:01.650Z,34.98
2022-08-07T12:32:35.643Z,34.45
2022-08-07T12:35:05.641Z,33.94
2022-08-07T12:38:09.542Z,34.32
2022-08-07T12:40:47.506Z,32.38
2022-08-07T12:44:01.935Z,33.19
2022-08-07T12:46:26.306Z,33.10
2022-08-07T12:49:39.341Z,33.09
2022-08-07T12:52:14.680Z,32.97
2022-08-07T12:55:00.179Z,33.13
2022-08-07T12:57:59.496Z,33.09
2022-08-07T13:00:32.896Z,32.53
2022-08-07T13:03:26.930Z,32.17
2022-08-07T13:06:28.031Z,33.33
2022-08-07T13:10:09.111Z,33.50
2022-08-07T13:12:03.526Z,32.88
2022-08-07T13:14:55.121Z,32.29
2022-08-07T13:17:41.038Z,32.57
2022-08-07T13:20:17.707Z,32.75
2022-08-07T13:22:53.374Z,32.53
2022-08-07T13:25:30.776Z,32.68
2022-08-07T13:28:10.706Z,32.85
2022-08-07T13:31:01.702Z,33.21
2022-08-07T13:34:31.337Z,32.54
2022-08-07T13:36:39.732Z,32.34
2022-08-07T13:39:49.240Z,32.47
2022-08-07T13:42:07.389Z,32.93
2022-08-07T13:44:37.889Z,32.76
2022-08-07T13:47:10.401Z,32.31
2022-08-07T13:50:34.653Z,32.07
2022-08-07T13:52:41.438Z,32.34
2022-08-07T13:55:19.148Z,31.72
2022-08-07T13:58:02.297Z,31.38
2022-08-07T14:00:39.503Z,31.53
2022-08-07T14:03:29.182Z,31.74
2022-08-07T14:06:11.323Z,31.83
2022-08-07T14:08:45.736Z,31.70
2022-08-07T14:11:19.225Z,31.99
2022-08-07T14:13:55.756Z,32.32
2022-08-07T14:16:31.347Z,31.90
2022-08-07T14:19:04.644Z,31.85
2022-08-07T14:22:04.074Z,31.49
2022-08-07T14:24:36.663Z,31.71
2022-08-07T14:28:09.909Z,31.71
2022-08-07T14:30:11.189Z,31.97
2022-08-07T14:32:45.527Z,32.31
2022-08-07T14:35:44.658Z,32.71
2022-08-07T14:38:09.707Z,32.06
2022-08-07T14:40:56.663Z,31.94
2022-08-07T14:43:57.987Z,31.87
2022-08-07T14:46:22.675Z,32.27
2022-08-07T14:49:55.680Z,32.11
2022-08-07T14:57:58.716Z,31.99
2022-08-07T15:03:19.681Z,32.17
2022-08-07T15:05:54.602Z,32.61
2022-08-07T15:11:54.437Z,32.55
2022-08-07T15:14:18.080Z,32.43
2022-08-07T15:16:54.583Z,32.63
2022-08-07T15:20:23.659Z,33.02
2022-08-07T15:28:30.990Z,32.87
2022-08-07T15:31:05.091Z,33.32
2022-08-07T15:37:02.491Z,33.34
2022-08-07T15:39:14.186Z,33.63
2022-08-07T15:44:52.128Z,32.82
2022-08-07T15:47:59.860Z,33.03
2022-08-07T15:50:37.719Z,33.46
2022-08-07T15:53:06.533Z,32.98
2022-08-07T15:55:53.448Z,33.39
2022-08-07T15:58:35.870Z,33.50
2022-08-07T16:01:04.971Z,32.73
2022-08-07T16:03:47.437Z,32.60
2022-08-07T16:06:30.062Z,33.31
2022-08-07T16:09:03.005Z,33.12
2022-08-07T16:11:52.298Z,32.71
2022-08-07T16:14:34.112Z,32.92
2022-08-07T16:18:01.973Z,32.92
2022-08-07T16:20:33.745Z,32.78
2022-08-07T16:23:52.998Z,33.04
2022-08-07T16:26:14.510Z,32.98
2022-08-07T16:30:07.886Z,32.98
2022-08-07T16:32:00.653Z,33.09
2022-08-07T16:34:48.152Z,33.46
2022-08-07T16:38:06.870Z,32.98
2022-08-07T16:41:16.488Z,33.07
2022-08-07T16:44:46.045Z,33.38
2022-08-07T16:47:49.618Z,33.54
2022-08-07T16:50:39.322Z,33.54
2022-08-07T16:54:02.607Z,33.36
2022-08-07T16:56:37.641Z,34.35
2022-08-07T16:59:17.234Z,34.62
2022-08-07T17:02:02.792Z,34.18
2022-08-07T17:04:51.093Z,34.17
2022-08-07T17:07:55.954Z,35.00
2022-08-07T17:10:32.880Z,34.51
2022-08-07T17:13:17.831Z,34.59
2022-08-07T17:15:54.951Z,34.87
2022-08-07T17:18:30.840Z,35.45
2022-08-07T17:21:00.859Z,35.25
2022-08-07T17:23:41.578Z,35.25
2022-08-07T17:26:23.397Z,35.64
2022-08-07T17:30:12.683Z,35.73
2022-08-07T17:32:30.100Z,35.89
2022-08-07T17:35:49.811Z,35.90
2022-08-07T17:38:05.419Z,36.37
2022-08-07T17:40:50.766Z,36.07
2022-08-07T17:44:01.510Z,36.43
2022-08-07T17:46:18.253Z,36.53
2022-08-07T17:49:02.875Z,36.51
2022-08-07T17:51:49.637Z,37.02
2022-08-07T17:54:54.068Z,37.40
2022-08-07T17:57:56.400Z,37.43
2022-08-07T18:00:33.294Z,37.99
2022-08-07T18:03:18.453Z,37.72
2022-08-07T18:06:01.860Z,37.64
2022-08-07T18:09:00.769Z,38.27
2022-08-07T18:12:07.105Z,38.17
2022-08-07T18:14:28.811Z,38.52
2022-08-07T18:17:01.262Z,39.32
2022-08-07T18:21:11.507Z,38.63
2022-08-07T18:22:34.129Z,38.78
2022-08-07T18:25:19.137Z,38.95
2022-08-07T18:28:34.517Z,39.06
2022-08-07T18:31:05.558Z,39.29
2022-08-07T18:33:58.300Z,39.27
2022-08-07T18:36:53.782Z,39.74
2022-08-07T18:40:07.166Z,39.81
2022-08-07T18:42:28.907Z,40.13
2022-08-07T18:45:43.560Z,40.32
2022-08-07T18:48:05.255Z,40.02
2022-08-07T18:50:49.361Z,40.02
2022-08-07T18:53:37.046Z,40.64
2022-08-07T18:56:14.915Z,40.98
2022-08-07T18:58:59.917Z,40.71
2022-08-07T19:02:18.187Z,40.74
2022-08-07T19:04:54.515Z,40.76
2022-08-07T19:07:34.428Z,40.70
2022-08-07T19:10:12.116Z,41.43
2022-08-07T19:12:53.765Z,41.21
2022-08-07T19:16:05.168Z,41.96
2022-08-07T19:18:35.481Z,42.27
2022-08-07T19:21:51.177Z,41.90
2022-08-07T19:24:30.403Z,42.11
2022-08-07T19:28:29.950Z,42.15
2022-08-07T19:31:02.235Z,41.97
2022-08-07T19:32:47.412Z,42.72
2022-08-07T19:35:26.710Z,42.41
2022-08-07T19:37:58.557Z,42.32
2022-08-07T19:40:31.007Z,43.09
2022-08-07T19:43:02.752Z,42.95
2022-08-07T19:46:09.433Z,42.85
2022-08-07T19:48:31.934Z,43.28
2022-08-07T19:51:19.143Z,43.76
2022-08-07T19:54:31.488Z,44.22
2022-08-07T19:57:51.733Z,43.95
2022-08-07T19:59:39.750Z,44.56
2022-08-07T20:02:19.758Z,44.14
2022-08-07T20:04:51.990Z,44.29
2022-08-07T20:07:45.983Z,44.63
2022-08-07T20:10:35.702Z,44.65
2022-08-07T20:13:07.369Z,44.74
2022-08-07T20:15:51.245Z,44.81
2022-08-07T20:18:32.958Z,44.74
2022-08-07T20:21:14.524Z,45.11
2022-08-07T20:23:58.003Z,45.00
2022-08-07T20:26:32.352Z,45.51
2022-08-07T20:29:10.357Z,45.17
2022-08-07T20:31:48.002Z,45.14
2022-08-07T20:34:39.998Z,45.14
2022-08-07T20:37:11.134Z,45.02
2022-08-07T20:40:02.693Z,45.38
2022-08-07T20:42:34.405Z,44.78
2022-08-07T20:45:33.322Z,45.07
2022-08-07T20:47:58.366Z,44.82
2022-08-07T20:50:30.520Z,45.05
2022-08-07T20:52:59.258Z,45.04
2022-08-07T20:55:32.295Z,45.23
2022-08-07T20:58:11.837Z,45.05
2022-08-07T21:00:53.153Z,45.23
2022-08-07T21:03:25.983Z,45.45
2022-08-07T21:06:00.784Z,44.98
2022-08-07T21:08:37.876Z,45.37
2022-08-07T21:11:12.385Z,45.33
2022-08-07T21:14:16.448Z,45.20
2022-08-07T21:16:56.374Z,44.88
2022-08-07T21:19:32.440Z,44.76
2022-08-07T21:22:19.095Z,45.10
2022-08-07T21:25:12.515Z,44.93
2022-08-07T21:28:01.858Z,45.29
2022-08-07T21:30:39.249Z,45.65
2022-08-07T21:33:17.656Z,46.29
2022-08-07T21:36:06.004Z,46.69
2022-08-07T21:38:50.265Z,47.05
2022-08-07T21:41:24.422Z,46.80
2022-08-07T21:44:01.942Z,47.30
2022-08-07T21:46:41.891Z,47.89
2022-08-07T21:49:16.396Z,47.30
2022-08-07T21:52:04.066Z,47.71
2022-08-07T21:54:46.061Z,47.82
2022-08-07T21:57:39.913Z,48.24
2022-08-07T22:00:22.585Z,49.04
2022-08-07T22:02:59.958Z,48.77
2022-08-07T22:05:50.783Z,48.73
2022-08-07T22:08:23.189Z,49.22
2022-08-07T22:10:56.906Z,49.15
2022-08-07T22:13:51.233Z,49.75
2022-08-07T22:16:42.141Z,48.77
2022-08-07T22:19:23.640Z,50.35
2022-08-07T22:22:20.919Z,50.39
2022-08-07T22:25:08.197Z,50.88
2022-08-07T22:28:06.449Z,50.63
2022-08-07T22:30:37.440Z,51.11
2022-08-07T22:33:10.251Z,52.08
2022-08-07T22:35:46.988Z,51.91
2022-08-07T22:38:28.014Z,51.43
2022-08-07T22:41:02.953Z,52.02
2022-08-07T22:43:37.237Z,52.14
2022-08-07T22:47:02.243Z,52.89
2022-08-07T22:49:39.462Z,52.95
2022-08-07T22:52:47.508Z,54.47
2022-08-07T22:55:38.134Z,53.72
2022-08-07T22:58:31.775Z,54.72
2022-08-07T23:01:26.937Z,54.58
2022-08-07T23:04:29.993Z,54.75
2022-08-07T23:07:39.831Z,54.39
2022-08-07T23:10:38.183Z,55.42
2022-08-07T23:13:29.273Z,56.23
2022-08-07T23:16:46.311Z,55.90
2022-08-07T23:19:16.728Z,56.31
2022-08-07T23:21:50.553Z,55.88
2022-08-07T23:24:38.572Z,56.34
2022-08-07T23:27:33.485Z,56.96
2022-08-07T23:30:38.357Z,57.36
2022-08-07T23:34:35.254Z,57.47
2022-08-07T23:36:08.515Z,57.62
2022-08-07T23:38:58.193Z,56.92
2022-08-07T23:42:04.584Z,57.95
2022-08-07T23:44:48.981Z,57.74
2022-08-07T23:47:23.915Z,58.42
2022-08-07T23:50:16.204Z,58.36
2022-08-07T23:52:58.580Z,58.47
2022-08-07T23:55:53.134Z,58.97
2022-08-07T23:58:37.462Z,58.69
